Ambleside, United Kingdom
Current Conditions -  °F | °C
As of 4:50 AM on Friday 28 Nov 2014 (Local Time) from EGOM Reporting Station
Moderate Fog Moderate Fog  
Wind Chill: 35°   Ceiling: Unl
Heat Index: 41°   Visibility: 0.25mi
Dew Point: 41°   Wind: 9mph
Humidity: 100%   Direction: 50°NE
Pressure: 29.65"   Gusts: NA
Location:  54.43°N, 2.96°W
Report Text: EGOM 280450Z AUTO 05008KT 0400 FG VV/// 05/05 Q1004
Loading
Personal Weather Stations






























Interactive Weather Map New forecast layout! Learn more

10-Day Weather Forecast

Advertisements
Track Severe Weather on mobile